createdAt,value
2018-01-19T00:00:05.517Z,65.30
2018-01-19T00:02:33.705Z,64.90
2018-01-19T00:05:01.264Z,64.80
2018-01-19T00:07:30.269Z,65.50
2018-01-19T00:09:57.874Z,65.90
2018-01-19T00:12:26.201Z,65.90
2018-01-19T00:14:53.758Z,65.90
2018-01-19T00:17:21.338Z,66.60
2018-01-19T00:19:48.856Z,67.70
2018-01-19T00:22:16.547Z,68.20
2018-01-19T00:24:44.888Z,69.00
2018-01-19T00:27:12.847Z,69.00
2018-01-19T00:29:40.400Z,68.60
2018-01-19T00:32:08.006Z,68.30
2018-01-19T00:34:36.367Z,69.40
2018-01-19T00:37:03.921Z,69.40
2018-01-19T00:39:31.509Z,69.10
2018-01-19T00:41:59.050Z,69.20
2018-01-19T00:44:26.615Z,69.20
2018-01-19T00:46:55.043Z,69.60
2018-01-19T00:49:22.599Z,69.40
2018-01-19T00:51:50.154Z,69.00
2018-01-19T00:54:17.746Z,69.30
2018-01-19T00:56:47.192Z,69.40
2018-01-19T00:59:16.726Z,69.30
2018-01-19T01:01:44.284Z,69.60
2018-01-19T01:04:11.878Z,69.30
2018-01-19T01:06:39.434Z,68.90
2018-01-19T01:09:06.994Z,69.10
2018-01-19T01:11:34.631Z,69.60
2018-01-19T01:14:03.053Z,69.60
2018-01-19T01:16:30.669Z,69.60
2018-01-19T01:18:58.230Z,69.60
2018-01-19T01:21:25.820Z,69.60
2018-01-19T01:23:53.391Z,69.80
2018-01-19T01:26:21.019Z,69.90
2018-01-19T01:28:48.575Z,69.80
2018-01-19T01:31:16.925Z,69.90
2018-01-19T01:33:44.483Z,69.80
2018-01-19T01:36:12.119Z,69.70
2018-01-19T01:38:39.694Z,69.40
2018-01-19T01:41:08.238Z,69.60
2018-01-19T01:43:35.815Z,69.70
2018-01-19T01:46:03.629Z,69.80
2018-01-19T01:48:31.172Z,69.80
2018-01-19T01:50:59.527Z,69.50
2018-01-19T01:53:27.172Z,69.50
2018-01-19T01:55:54.760Z,69.80
2018-01-19T01:58:23.071Z,70.50
2018-01-19T02:00:50.733Z,69.70
2018-01-19T02:03:18.261Z,69.60
2018-01-19T02:05:46.598Z,69.90
2018-01-19T02:08:14.124Z,69.90
2018-01-19T02:10:41.663Z,70.00
2018-01-19T02:13:09.219Z,70.00
2018-01-19T02:15:37.574Z,69.80
2018-01-19T02:18:05.129Z,69.70
2018-01-19T02:20:32.652Z,69.60
2018-01-19T02:23:00.242Z,69.40
2018-01-19T02:25:27.785Z,69.40
2018-01-19T02:27:55.364Z,69.50
2018-01-19T02:30:22.922Z,69.80
2018-01-19T02:32:50.480Z,70.70
2018-01-19T02:35:18.040Z,69.30
2018-01-19T02:37:45.594Z,69.00
2018-01-19T02:40:13.175Z,69.30
2018-01-19T02:42:40.741Z,69.20
2018-01-19T02:45:08.911Z,69.10
2018-01-19T02:47:36.436Z,68.80
2018-01-19T02:50:04.089Z,68.60
2018-01-19T02:52:31.668Z,68.60
2018-01-19T02:54:59.244Z,68.20
2018-01-19T02:57:26.831Z,68.30
2018-01-19T02:59:54.342Z,68.10
2018-01-19T03:02:21.883Z,67.60
2018-01-19T03:04:50.376Z,67.90
2018-01-19T03:07:17.925Z,67.80
2018-01-19T03:09:45.528Z,67.60
2018-01-19T03:12:13.950Z,68.00
2018-01-19T03:14:41.550Z,67.90
2018-01-19T03:17:09.072Z,67.50
2018-01-19T03:19:36.602Z,67.20
2018-01-19T03:22:04.155Z,67.40
2018-01-19T03:24:31.683Z,67.20
2018-01-19T03:26:59.210Z,66.90
2018-01-19T03:29:26.769Z,66.30
2018-01-19T03:31:54.326Z,66.30
2018-01-19T03:34:22.659Z,65.40
2018-01-19T03:36:50.209Z,65.40
2018-01-19T03:39:17.743Z,65.10
2018-01-19T03:41:45.331Z,64.90
2018-01-19T03:44:12.909Z,65.00
2018-01-19T03:46:40.472Z,64.60
2018-01-19T03:49:08.029Z,64.40
2018-01-19T03:51:35.649Z,63.90
2018-01-19T03:54:03.217Z,64.00
2018-01-19T03:56:31.222Z,64.10
2018-01-19T03:58:58.774Z,64.70
2018-01-19T04:01:26.303Z,63.70
2018-01-19T04:03:53.830Z,63.80
2018-01-19T04:06:21.442Z,64.10
2018-01-19T04:08:49.451Z,64.20
2018-01-19T04:11:17.166Z,64.00
2018-01-19T04:13:44.694Z,63.80
2018-01-19T04:16:12.206Z,63.80
2018-01-19T04:18:40.550Z,63.80
2018-01-19T04:21:08.684Z,63.80
2018-01-19T04:23:37.004Z,63.50
2018-01-19T04:26:06.038Z,63.50
2018-01-19T04:28:33.568Z,63.30
2018-01-19T04:31:01.856Z,63.50
2018-01-19T04:33:29.506Z,63.50
2018-01-19T04:35:57.523Z,63.40
2018-01-19T04:38:25.132Z,63.40
2018-01-19T04:40:52.912Z,63.40
2018-01-19T04:43:20.460Z,63.40
2018-01-19T04:45:48.015Z,63.50
2018-01-19T04:48:15.619Z,63.40
2018-01-19T04:50:43.179Z,63.60
2018-01-19T04:53:10.731Z,63.80
2018-01-19T04:55:38.329Z,64.20
2018-01-19T04:58:05.884Z,64.20
2018-01-19T05:00:33.503Z,64.20
2018-01-19T05:03:02.149Z,64.20
2018-01-19T05:05:29.719Z,64.30
2018-01-19T05:07:57.257Z,64.20
2018-01-19T05:10:25.310Z,64.70
2018-01-19T05:12:53.637Z,65.30
2018-01-19T05:15:21.207Z,65.10
2018-01-19T05:17:49.565Z,65.60
2018-01-19T05:20:17.895Z,65.10
2018-01-19T05:22:46.188Z,65.60
2018-01-19T05:25:15.119Z,65.20
2018-01-19T05:27:42.646Z,65.20
2018-01-19T05:30:10.388Z,65.30
2018-01-19T05:32:37.974Z,65.60
2018-01-19T05:35:05.579Z,65.20
2018-01-19T05:37:33.194Z,65.00
2018-01-19T05:40:00.780Z,64.90
2018-01-19T05:42:28.334Z,65.30
2018-01-19T05:44:55.903Z,65.40
2018-01-19T05:47:23.477Z,65.80
2018-01-19T05:49:51.051Z,66.40
2018-01-19T05:52:18.573Z,66.50
2018-01-19T05:54:46.128Z,66.80
2018-01-19T05:57:13.685Z,67.00
2018-01-19T05:59:41.232Z,67.60
2018-01-19T06:02:08.843Z,68.20
2018-01-19T06:04:36.416Z,67.90
2018-01-19T06:07:04.757Z,68.80
2018-01-19T06:09:32.300Z,68.80
2018-01-19T06:12:00.023Z,69.10
2018-01-19T06:14:28.360Z,69.90
2018-01-19T06:16:55.922Z,69.90
2018-01-19T06:19:24.668Z,70.60
2018-01-19T06:21:52.963Z,70.70
2018-01-19T06:24:20.543Z,70.70
2018-01-19T06:26:48.086Z,71.00
2018-01-19T06:29:15.606Z,71.00
2018-01-19T06:31:43.234Z,71.60
2018-01-19T06:34:10.759Z,71.80
2018-01-19T06:36:38.297Z,72.40
2018-01-19T06:39:06.638Z,72.90
2018-01-19T06:41:35.002Z,73.50
2018-01-19T06:44:02.583Z,73.40
2018-01-19T06:46:30.191Z,73.60
2018-01-19T06:48:57.714Z,72.70
2018-01-19T06:51:25.238Z,72.60
2018-01-19T06:53:52.842Z,73.10
2018-01-19T06:56:20.441Z,73.10
2018-01-19T06:58:47.965Z,73.70
2018-01-19T07:01:16.381Z,73.60
2018-01-19T07:03:43.988Z,73.60
2018-01-19T07:06:11.597Z,73.90
2018-01-19T07:08:39.171Z,74.00
2018-01-19T07:11:07.333Z,73.90
2018-01-19T07:13:37.169Z,73.90
2018-01-19T07:16:04.826Z,73.50
2018-01-19T07:18:32.402Z,73.30
2018-01-19T07:20:59.968Z,73.00
2018-01-19T07:23:27.550Z,73.60
2018-01-19T07:25:56.023Z,73.00
2018-01-19T07:28:24.404Z,73.00
2018-01-19T07:30:51.976Z,72.30
2018-01-19T07:33:19.734Z,73.00
2018-01-19T07:35:47.324Z,73.10
2018-01-19T07:38:14.852Z,73.00
2018-01-19T07:40:42.444Z,72.50
2018-01-19T07:43:10.048Z,72.80
2018-01-19T07:45:38.449Z,73.30
2018-01-19T07:48:06.008Z,73.60
2018-01-19T07:50:33.575Z,72.90
2018-01-19T07:53:01.138Z,73.10
2018-01-19T07:55:29.430Z,73.30
2018-01-19T07:57:57.017Z,73.30
2018-01-19T08:00:26.371Z,72.60
2018-01-19T08:02:53.953Z,73.00
2018-01-19T08:05:22.352Z,74.10
2018-01-19T08:07:49.902Z,74.00
2018-01-19T08:10:17.432Z,74.60
2018-01-19T08:12:45.082Z,74.50
2018-01-19T08:15:12.634Z,74.50
2018-01-19T08:17:40.183Z,75.10
2018-01-19T08:20:09.271Z,75.20
2018-01-19T08:22:36.832Z,75.40
2018-01-19T08:25:05.319Z,75.10
2018-01-19T08:27:33.624Z,74.90
2018-01-19T08:30:01.198Z,74.60
2018-01-19T08:32:28.783Z,74.90
2018-01-19T08:34:56.386Z,74.60
2018-01-19T08:37:23.953Z,74.10
2018-01-19T08:39:51.536Z,74.00
2018-01-19T08:42:19.126Z,74.30
2018-01-19T08:44:46.953Z,75.00
2018-01-19T08:47:14.505Z,74.40
2018-01-19T08:49:42.195Z,74.80
2018-01-19T08:52:09.736Z,75.30
2018-01-19T08:54:37.310Z,74.90
2018-01-19T08:57:05.664Z,74.40
2018-01-19T08:59:33.246Z,74.40
2018-01-19T09:02:02.731Z,74.40
2018-01-19T09:04:30.480Z,73.30
2018-01-19T09:06:58.016Z,74.30
2018-01-19T09:09:26.264Z,74.30
2018-01-19T09:11:54.875Z,72.80
2018-01-19T09:14:22.420Z,72.80
2018-01-19T09:16:50.104Z,73.60
2018-01-19T09:19:17.713Z,73.80
2018-01-19T09:21:45.257Z,73.70
2018-01-19T09:24:12.859Z,73.60
2018-01-19T09:26:40.431Z,73.30
2018-01-19T09:29:08.079Z,73.60
2018-01-19T09:31:37.667Z,73.70
2018-01-19T09:34:06.008Z,73.20
2018-01-19T09:36:33.582Z,73.20
2018-01-19T09:39:01.166Z,72.80
2018-01-19T09:41:30.406Z,73.50
2018-01-19T09:43:58.745Z,73.00
2018-01-19T09:46:26.422Z,73.00
2018-01-19T09:48:54.081Z,72.80
2018-01-19T09:51:21.685Z,73.30
2018-01-19T09:53:49.230Z,73.50
2018-01-19T09:56:16.917Z,73.50
2018-01-19T09:58:44.502Z,72.90
2018-01-19T10:01:12.815Z,73.00
2018-01-19T10:03:40.388Z,72.90
2018-01-19T10:06:07.914Z,72.90
2018-01-19T10:08:36.318Z,72.70
2018-01-19T10:11:03.882Z,72.70
2018-01-19T10:13:31.424Z,72.50
2018-01-19T10:15:59.042Z,72.00
2018-01-19T10:18:26.638Z,71.50
2018-01-19T10:20:54.190Z,71.10
2018-01-19T10:23:21.771Z,70.40
2018-01-19T10:25:49.359Z,70.40
2018-01-19T10:28:16.919Z,70.00
2018-01-19T10:30:44.495Z,68.90
2018-01-19T10:33:12.088Z,68.80
2018-01-19T10:35:40.441Z,68.80
2018-01-19T10:38:08.031Z,68.70
2018-01-19T10:40:35.574Z,68.20
2018-01-19T10:43:03.109Z,67.50
2018-01-19T10:45:30.649Z,67.40
2018-01-19T10:47:58.256Z,67.30
2018-01-19T10:50:26.612Z,66.90
2018-01-19T10:52:54.189Z,66.90
2018-01-19T10:55:21.822Z,66.60
2018-01-19T10:57:49.444Z,66.20
2018-01-19T11:00:17.063Z,65.30
2018-01-19T11:02:44.607Z,65.90
2018-01-19T11:05:12.180Z,65.80
2018-01-19T11:07:39.736Z,65.10
2018-01-19T11:10:08.553Z,65.10
2018-01-19T11:12:36.143Z,64.40
2018-01-19T11:15:03.811Z,64.80
2018-01-19T11:17:31.361Z,64.60
2018-01-19T11:19:58.962Z,65.30
2018-01-19T11:22:26.491Z,65.30
2018-01-19T11:24:54.032Z,64.70
2018-01-19T11:27:21.676Z,64.60
2018-01-19T11:29:50.014Z,64.40
2018-01-19T11:32:17.762Z,64.40
2018-01-19T11:34:45.293Z,64.60
2018-01-19T11:37:13.095Z,64.40
2018-01-19T11:39:40.707Z,64.10
2018-01-19T11:42:08.287Z,64.00
2018-01-19T11:44:35.941Z,64.00
2018-01-19T11:47:03.558Z,63.80
2018-01-19T11:49:31.179Z,63.60
2018-01-19T11:51:58.755Z,62.30
2018-01-19T11:54:26.328Z,62.60
2018-01-19T11:56:53.908Z,62.50
2018-01-19T11:59:21.541Z,62.90
2018-01-19T12:01:49.097Z,62.50
2018-01-19T12:04:17.168Z,61.80
2018-01-19T12:06:44.764Z,62.10
2018-01-19T12:09:12.305Z,62.10
2018-01-19T12:11:39.920Z,62.20
2018-01-19T12:14:08.328Z,62.10
2018-01-19T12:16:37.205Z,62.00
2018-01-19T12:19:04.795Z,61.80
2018-01-19T12:21:33.120Z,60.80
2018-01-19T12:24:00.707Z,60.80
2018-01-19T12:26:28.328Z,60.90
2018-01-19T12:28:55.938Z,60.60
2018-01-19T12:31:25.064Z,60.30
2018-01-19T12:33:52.666Z,60.30
2018-01-19T12:36:20.235Z,59.80
2018-01-19T12:38:47.934Z,60.00
2018-01-19T12:41:15.834Z,59.70
2018-01-19T12:43:43.423Z,59.80
2018-01-19T12:46:11.051Z,59.70
2018-01-19T12:48:39.406Z,58.70
2018-01-19T12:51:06.991Z,58.70
2018-01-19T12:53:34.611Z,58.80
2018-01-19T12:56:02.192Z,58.30
2018-01-19T12:58:30.597Z,58.60
2018-01-19T13:00:58.300Z,58.60
2018-01-19T13:03:25.884Z,58.30
2018-01-19T13:05:53.951Z,58.30
2018-01-19T13:08:21.489Z,58.50
2018-01-19T13:10:49.092Z,58.00
2018-01-19T13:13:16.683Z,57.90
2018-01-19T13:15:45.037Z,57.90
2018-01-19T13:18:12.639Z,57.80
2018-01-19T13:20:40.201Z,57.50
2018-01-19T13:23:11.015Z,57.70
2018-01-19T13:35:18.601Z,57.50
2018-01-19T13:37:46.167Z,57.20
2018-01-19T13:40:13.785Z,57.60
2018-01-19T13:42:41.385Z,57.60
2018-01-19T13:45:09.779Z,57.40
2018-01-19T13:47:37.355Z,57.60
2018-01-19T13:50:05.071Z,57.50
2018-01-19T13:52:32.728Z,57.00
2018-01-19T13:55:00.328Z,55.90
2018-01-19T13:57:27.883Z,56.00
2018-01-19T13:59:56.591Z,55.70
2018-01-19T14:02:25.582Z,55.60
2018-01-19T14:04:53.223Z,56.30
2018-01-19T14:07:20.857Z,56.60
2018-01-19T14:09:49.187Z,56.90
2018-01-19T14:12:16.800Z,56.90
2018-01-19T14:14:46.226Z,57.50
2018-01-19T14:17:14.062Z,57.40
2018-01-19T14:19:41.632Z,57.40
2018-01-19T14:22:09.207Z,57.70
2018-01-19T14:24:36.888Z,57.90
2018-01-19T14:27:04.550Z,58.10
2018-01-19T14:29:33.123Z,58.10
2018-01-19T14:32:00.754Z,58.20
2018-01-19T14:34:29.115Z,58.10
2018-01-19T14:36:56.734Z,58.10
2018-01-19T14:39:24.306Z,58.20
2018-01-19T14:41:51.943Z,58.00
2018-01-19T14:44:19.572Z,57.90
2018-01-19T14:46:47.949Z,57.70
2018-01-19T14:49:16.411Z,57.20
2018-01-19T14:51:44.006Z,57.20
2018-01-19T14:54:11.627Z,57.30
2018-01-19T14:56:39.167Z,57.30
2018-01-19T14:59:06.782Z,56.90
2018-01-19T15:01:34.315Z,57.00
2018-01-19T15:04:01.886Z,56.10
2018-01-19T15:06:30.370Z,54.30
2018-01-19T15:08:58.741Z,53.40
2018-01-19T15:11:27.131Z,53.70
2018-01-19T15:13:54.677Z,53.60
2018-01-19T15:16:22.264Z,53.70
2018-01-19T15:18:50.655Z,53.30
2018-01-19T15:21:18.280Z,53.30
2018-01-19T15:23:46.007Z,53.10
2018-01-19T15:26:13.548Z,53.40
2018-01-19T15:28:41.190Z,53.10
2018-01-19T15:31:09.518Z,52.70
2018-01-19T15:33:37.126Z,52.70
2018-01-19T15:36:04.739Z,52.50
2018-01-19T15:38:32.270Z,53.10
2018-01-19T15:41:00.047Z,53.40
2018-01-19T15:43:27.666Z,54.00
2018-01-19T15:45:56.034Z,54.70
2018-01-19T15:48:23.627Z,54.70
2018-01-19T15:50:51.148Z,55.00
2018-01-19T15:53:18.712Z,55.20
2018-01-19T15:55:46.370Z,55.30
2018-01-19T15:58:13.907Z,55.50
2018-01-19T16:00:41.491Z,55.60
2018-01-19T16:03:09.055Z,55.40
2018-01-19T16:05:37.582Z,55.60
2018-01-19T16:08:05.124Z,55.60
2018-01-19T16:10:32.750Z,55.40
2018-01-19T16:13:00.339Z,55.60
2018-01-19T16:15:28.637Z,55.10
2018-01-19T16:17:56.216Z,55.00
2018-01-19T16:20:23.785Z,55.00
2018-01-19T16:22:51.320Z,55.00
2018-01-19T16:25:18.851Z,55.00
2018-01-19T16:27:46.422Z,54.90
2018-01-19T16:30:14.039Z,55.20
2018-01-19T16:32:41.650Z,55.40
2018-01-19T16:35:09.282Z,55.10
2018-01-19T16:37:37.612Z,54.70
2018-01-19T16:40:05.536Z,54.70
2018-01-19T16:42:33.974Z,53.40
2018-01-19T16:45:01.561Z,53.30
2018-01-19T16:47:29.145Z,53.40
2018-01-19T16:49:56.852Z,53.30
2018-01-19T16:52:24.462Z,52.90
2018-01-19T16:54:52.241Z,52.90
2018-01-19T16:57:19.784Z,53.10
2018-01-19T16:59:48.131Z,53.10
2018-01-19T17:02:15.712Z,53.10
2018-01-19T17:04:43.296Z,53.40
2018-01-19T17:07:10.903Z,53.20
2018-01-19T17:09:38.469Z,53.40
2018-01-19T17:12:06.075Z,53.50
2018-01-19T17:14:33.610Z,53.90
2018-01-19T17:17:01.946Z,53.90
2018-01-19T17:19:29.585Z,53.90
2018-01-19T17:21:57.143Z,53.90
2018-01-19T17:24:24.739Z,54.00
2018-01-19T17:26:52.278Z,54.00
2018-01-19T17:29:19.829Z,54.50
2018-01-19T17:31:47.415Z,55.40
2018-01-19T17:34:15.650Z,55.90
2018-01-19T17:49:38.446Z,56.30
2018-01-19T17:52:05.979Z,58.10
2018-01-19T17:54:33.524Z,58.10
2018-01-19T17:57:01.109Z,58.70
2018-01-19T17:59:28.759Z,58.00
2018-01-19T18:01:56.412Z,58.00
2018-01-19T18:04:23.944Z,57.90
2018-01-19T18:06:51.486Z,58.70
2018-01-19T18:09:19.096Z,58.00
2018-01-19T18:11:46.693Z,57.40
2018-01-19T18:14:14.232Z,57.10
2018-01-19T18:16:46.585Z,57.30
2018-01-19T18:19:14.417Z,57.40
2018-01-19T18:21:42.063Z,57.20
2018-01-19T18:24:09.686Z,57.10
2018-01-19T18:26:37.285Z,56.90
2018-01-19T18:29:04.943Z,57.00
2018-01-19T18:31:32.563Z,56.60
2018-01-19T18:34:00.137Z,56.60
2018-01-19T18:36:27.714Z,56.50
2018-01-19T18:38:55.293Z,56.60
2018-01-19T18:41:23.630Z,56.30
2018-01-19T18:43:51.189Z,56.30
2018-01-19T18:46:18.979Z,56.10
2018-01-19T18:48:47.310Z,56.10
2018-01-19T18:51:14.974Z,56.10
2018-01-19T18:53:42.554Z,56.30
2018-01-19T18:56:10.379Z,56.70
2018-01-19T18:58:37.991Z,57.20
2018-01-19T19:01:05.564Z,57.00
2018-01-19T19:03:33.144Z,57.30
2018-01-19T19:06:01.508Z,58.10
2018-01-19T19:08:29.078Z,57.40
2018-01-19T19:10:56.647Z,57.80
2018-01-19T19:13:24.243Z,58.10
2018-01-19T19:15:51.834Z,58.10
2018-01-19T19:18:19.651Z,58.10
2018-01-19T19:20:47.313Z,58.10
2018-01-19T19:23:15.847Z,58.20
2018-01-19T19:25:44.133Z,58.50
2018-01-19T19:28:11.719Z,58.40
2018-01-19T19:30:40.049Z,58.20
2018-01-19T19:33:08.447Z,58.10
2018-01-19T19:35:36.060Z,58.30
2018-01-19T19:38:03.630Z,58.40
2018-01-19T19:40:31.324Z,59.00
2018-01-19T19:42:58.937Z,58.10
2018-01-19T19:45:26.925Z,58.20
2018-01-19T19:47:54.524Z,57.90
2018-01-19T19:50:23.159Z,58.10
2018-01-19T19:52:51.949Z,58.10
2018-01-19T19:55:19.964Z,58.10
2018-01-19T19:57:47.590Z,58.00
2018-01-19T20:00:15.782Z,58.00
2018-01-19T20:02:43.442Z,57.90
2018-01-19T20:05:11.146Z,57.90
2018-01-19T20:07:38.713Z,57.70
2018-01-19T20:10:07.183Z,57.60
2018-01-19T20:12:34.795Z,57.60
2018-01-19T20:15:02.401Z,57.80
2018-01-19T20:17:30.024Z,57.80
2018-01-19T20:19:57.693Z,57.90
2018-01-19T20:22:26.605Z,58.10
2018-01-19T20:24:54.674Z,58.00
2018-01-19T20:27:22.873Z,58.10
2018-01-19T20:29:51.290Z,58.20
2018-01-19T20:32:18.891Z,58.10
2018-01-19T20:34:46.861Z,58.20
2018-01-19T20:37:15.371Z,57.70
2018-01-19T20:39:44.011Z,57.80
2018-01-19T20:42:11.756Z,58.10
2018-01-19T20:44:39.368Z,58.20
2018-01-19T20:47:06.948Z,58.20
2018-01-19T20:49:35.111Z,58.20
2018-01-19T20:52:03.162Z,58.40
2018-01-19T20:54:30.826Z,58.70
2018-01-19T20:56:59.616Z,58.60
2018-01-19T20:59:27.297Z,58.60
2018-01-19T21:01:56.345Z,58.50
2018-01-19T21:04:25.097Z,58.30
2018-01-19T21:06:53.449Z,58.20
2018-01-19T21:09:21.119Z,58.20
2018-01-19T21:11:49.786Z,58.10
2018-01-19T21:14:17.539Z,58.10
2018-01-19T21:16:45.173Z,58.20
2018-01-19T21:19:12.813Z,58.20
2018-01-19T21:21:40.663Z,58.10
2018-01-19T21:24:09.096Z,58.10
2018-01-19T21:26:36.797Z,58.00
2018-01-19T21:29:05.474Z,57.70
2018-01-19T21:31:33.600Z,57.70
2018-01-19T21:34:01.715Z,57.80
2018-01-19T21:36:30.685Z,58.00
2018-01-19T21:38:58.364Z,58.20
2018-01-19T21:41:26.160Z,58.40
2018-01-19T21:43:54.746Z,58.20
2018-01-19T21:46:23.171Z,58.00
2018-01-19T21:48:51.788Z,58.00
2018-01-19T21:51:19.506Z,57.80
2018-01-19T21:53:47.234Z,57.80
2018-01-19T21:56:15.994Z,57.40
2018-01-19T21:58:43.577Z,57.30
2018-01-19T22:01:12.014Z,57.20
2018-01-19T22:03:40.586Z,57.10
2018-01-19T22:06:08.188Z,56.80
2018-01-19T22:08:35.769Z,57.00
2018-01-19T22:11:03.409Z,56.70
2018-01-19T22:13:31.807Z,56.50
2018-01-19T22:15:59.356Z,56.50
2018-01-19T22:18:27.804Z,56.60
2018-01-19T22:20:55.334Z,56.50
2018-01-19T22:23:22.883Z,56.80
2018-01-19T22:25:50.532Z,56.80
2018-01-19T22:28:18.071Z,56.80
2018-01-19T22:30:45.653Z,57.10
2018-01-19T22:33:13.971Z,57.30
2018-01-19T22:35:41.571Z,57.30
2018-01-19T22:38:09.131Z,57.20
2018-01-19T22:40:36.669Z,57.10
2018-01-19T22:43:04.350Z,57.20
2018-01-19T22:45:31.913Z,57.20
2018-01-19T22:47:59.469Z,57.20
2018-01-19T22:50:27.045Z,57.20
2018-01-19T22:52:54.627Z,57.40
2018-01-19T22:55:22.233Z,57.20
2018-01-19T22:57:49.837Z,57.30
2018-01-19T23:00:20.254Z,57.40
2018-01-19T23:02:48.632Z,57.20
2018-01-19T23:05:17.018Z,57.10
2018-01-19T23:07:45.350Z,57.40
2018-01-19T23:10:12.869Z,57.30
2018-01-19T23:12:40.463Z,57.30
2018-01-19T23:15:09.005Z,57.40
2018-01-19T23:17:36.611Z,57.60
2018-01-19T23:20:04.280Z,57.70
2018-01-19T23:22:31.811Z,57.50
2018-01-19T23:24:59.425Z,57.70
2018-01-19T23:27:26.946Z,57.90
2018-01-19T23:29:55.301Z,58.10
2018-01-19T23:32:22.854Z,58.10
2018-01-19T23:34:50.469Z,58.10
2018-01-19T23:37:18.782Z,58.10
2018-01-19T23:39:46.432Z,58.10
2018-01-19T23:42:14.022Z,58.20
2018-01-19T23:44:41.592Z,58.20
2018-01-19T23:47:09.160Z,58.50
2018-01-19T23:49:36.777Z,58.40
2018-01-19T23:52:04.376Z,58.60
2018-01-19T23:54:31.907Z,58.80
2018-01-19T23:57:00.004Z,58.80
2018-01-19T23:59:27.578Z,58.80
